sensor_id;sensor_type;location;lat;lon;timestamp;P1;durP1;ratioP1;P2;durP2;ratioP2
29908;SDS011;36247;51.952;6.146;2023-01-24T00:01:18;30.38;;;19.10;;
29908;SDS011;36247;51.952;6.146;2023-01-24T00:03:44;26.67;;;17.50;;
29908;SDS011;36247;51.952;6.146;2023-01-24T00:06:10;34.95;;;20.25;;
29908;SDS011;36247;51.952;6.146;2023-01-24T00:08:35;28.20;;;18.13;;
29908;SDS011;36247;51.952;6.146;2023-01-24T00:11:02;30.00;;;18.65;;
29908;SDS011;36247;51.952;6.146;2023-01-24T00:13:29;28.20;;;18.63;;
29908;SDS011;36247;51.952;6.146;2023-01-24T00:16:08;26.08;;;16.63;;
29908;SDS011;36247;51.952;6.146;2023-01-24T00:18:38;28.10;;;16.08;;
29908;SDS011;36247;51.952;6.146;2023-01-24T00:21:10;24.75;;;15.65;;
29908;SDS011;36247;51.952;6.146;2023-01-24T00:23:41;28.02;;;16.80;;
29908;SDS011;36247;51.952;6.146;2023-01-24T00:26:09;25.77;;;15.93;;
29908;SDS011;36247;51.952;6.146;2023-01-24T00:28:35;26.33;;;16.30;;
29908;SDS011;36247;51.952;6.146;2023-01-24T00:31:01;27.08;;;15.55;;
29908;SDS011;36247;51.952;6.146;2023-01-24T00:33:27;24.58;;;15.65;;
29908;SDS011;36247;51.952;6.146;2023-01-24T00:35:53;25.88;;;15.55;;
29908;SDS011;36247;51.952;6.146;2023-01-24T00:38:18;25.15;;;15.95;;
29908;SDS011;36247;51.952;6.146;2023-01-24T00:40:45;24.45;;;15.40;;
29908;SDS011;36247;51.952;6.146;2023-01-24T00:43:10;23.52;;;15.05;;
29908;SDS011;36247;51.952;6.146;2023-01-24T00:45:36;25.40;;;15.35;;
29908;SDS011;36247;51.952;6.146;2023-01-24T00:48:03;27.30;;;16.23;;
29908;SDS011;36247;51.952;6.146;2023-01-24T00:50:30;25.38;;;15.13;;
29908;SDS011;36247;51.952;6.146;2023-01-24T00:52:56;27.05;;;16.58;;
29908;SDS011;36247;51.952;6.146;2023-01-24T00:55:22;25.45;;;14.60;;
29908;SDS011;36247;51.952;6.146;2023-01-24T00:57:47;26.00;;;15.63;;
29908;SDS011;36247;51.952;6.146;2023-01-24T01:00:13;24.98;;;15.20;;
29908;SDS011;36247;51.952;6.146;2023-01-24T01:02:38;26.10;;;16.20;;
29908;SDS011;36247;51.952;6.146;2023-01-24T01:05:04;25.42;;;15.57;;
29908;SDS011;36247;51.952;6.146;2023-01-24T01:07:30;26.08;;;15.18;;
29908;SDS011;36247;51.952;6.146;2023-01-24T01:09:56;26.85;;;16.55;;
29908;SDS011;36247;51.952;6.146;2023-01-24T01:12:22;25.63;;;16.73;;
29908;SDS011;36247;51.952;6.146;2023-01-24T01:14:47;28.38;;;16.08;;
29908;SDS011;36247;51.952;6.146;2023-01-24T01:17:12;28.92;;;16.55;;
29908;SDS011;36247;51.952;6.146;2023-01-24T01:19:38;26.23;;;17.35;;
29908;SDS011;36247;51.952;6.146;2023-01-24T01:22:03;26.75;;;17.23;;
29908;SDS011;36247;51.952;6.146;2023-01-24T01:24:29;30.42;;;17.55;;
29908;SDS011;36247;51.952;6.146;2023-01-24T01:26:54;27.48;;;16.73;;
29908;SDS011;36247;51.952;6.146;2023-01-24T01:29:20;25.88;;;17.15;;
29908;SDS011;36247;51.952;6.146;2023-01-24T01:31:45;27.92;;;17.60;;
29908;SDS011;36247;51.952;6.146;2023-01-24T01:34:12;28.00;;;17.77;;
29908;SDS011;36247;51.952;6.146;2023-01-24T01:36:37;28.90;;;16.95;;
29908;SDS011;36247;51.952;6.146;2023-01-24T01:39:02;29.67;;;17.63;;
29908;SDS011;36247;51.952;6.146;2023-01-24T01:41:28;28.52;;;17.48;;
29908;SDS011;36247;51.952;6.146;2023-01-24T01:43:53;28.80;;;18.02;;
29908;SDS011;36247;51.952;6.146;2023-01-24T01:46:40;28.75;;;17.45;;
29908;SDS011;36247;51.952;6.146;2023-01-24T01:49:12;28.77;;;17.15;;
29908;SDS011;36247;51.952;6.146;2023-01-24T01:51:47;29.20;;;17.33;;
29908;SDS011;36247;51.952;6.146;2023-01-24T01:54:18;27.48;;;18.05;;
29908;SDS011;36247;51.952;6.146;2023-01-24T01:56:48;30.15;;;18.77;;
29908;SDS011;36247;51.952;6.146;2023-01-24T01:59:21;32.80;;;19.48;;
29908;SDS011;36247;51.952;6.146;2023-01-24T02:01:50;29.05;;;17.95;;
29908;SDS011;36247;51.952;6.146;2023-01-24T02:04:22;33.22;;;19.92;;
29908;SDS011;36247;51.952;6.146;2023-01-24T02:09:45;31.45;;;18.85;;
29908;SDS011;36247;51.952;6.146;2023-01-24T02:12:24;32.47;;;19.85;;
29908;SDS011;36247;51.952;6.146;2023-01-24T02:15:07;35.53;;;19.33;;
29908;SDS011;36247;51.952;6.146;2023-01-24T02:17:53;31.77;;;19.45;;
29908;SDS011;36247;51.952;6.146;2023-01-24T02:20:26;32.33;;;20.10;;
29908;SDS011;36247;51.952;6.146;2023-01-24T02:28:33;33.05;;;20.00;;
29908;SDS011;36247;51.952;6.146;2023-01-24T02:31:00;30.52;;;18.85;;
29908;SDS011;36247;51.952;6.146;2023-01-24T02:33:26;32.63;;;20.10;;
29908;SDS011;36247;51.952;6.146;2023-01-24T02:36:06;30.90;;;19.80;;
29908;SDS011;36247;51.952;6.146;2023-01-24T02:41:43;34.40;;;19.88;;
29908;SDS011;36247;51.952;6.146;2023-01-24T02:44:19;34.30;;;20.88;;
29908;SDS011;36247;51.952;6.146;2023-01-24T02:46:50;31.77;;;19.90;;
29908;SDS011;36247;51.952;6.146;2023-01-24T02:49:16;28.52;;;19.42;;
29908;SDS011;36247;51.952;6.146;2023-01-24T02:51:42;32.33;;;19.88;;
29908;SDS011;36247;51.952;6.146;2023-01-24T02:54:26;34.00;;;20.55;;
29908;SDS011;36247;51.952;6.146;2023-01-24T02:56:52;31.05;;;20.00;;
29908;SDS011;36247;51.952;6.146;2023-01-24T02:59:36;32.63;;;19.88;;
29908;SDS011;36247;51.952;6.146;2023-01-24T03:02:03;32.78;;;20.13;;
29908;SDS011;36247;51.952;6.146;2023-01-24T03:04:29;31.98;;;20.38;;
29908;SDS011;36247;51.952;6.146;2023-01-24T03:06:54;31.90;;;20.55;;
29908;SDS011;36247;51.952;6.146;2023-01-24T03:09:20;37.78;;;21.02;;
29908;SDS011;36247;51.952;6.146;2023-01-24T03:12:00;31.50;;;20.38;;
29908;SDS011;36247;51.952;6.146;2023-01-24T03:14:45;33.00;;;21.77;;
29908;SDS011;36247;51.952;6.146;2023-01-24T03:17:30;31.48;;;19.90;;
29908;SDS011;36247;51.952;6.146;2023-01-24T03:20:14;33.22;;;21.30;;
29908;SDS011;36247;51.952;6.146;2023-01-24T03:22:58;33.83;;;20.92;;
29908;SDS011;36247;51.952;6.146;2023-01-24T03:25:42;34.50;;;20.85;;
29908;SDS011;36247;51.952;6.146;2023-01-24T03:28:27;34.45;;;22.25;;
29908;SDS011;36247;51.952;6.146;2023-01-24T03:31:11;33.97;;;21.63;;
29908;SDS011;36247;51.952;6.146;2023-01-24T03:33:55;35.72;;;21.08;;
29908;SDS011;36247;51.952;6.146;2023-01-24T03:36:41;33.97;;;20.90;;
29908;SDS011;36247;51.952;6.146;2023-01-24T03:39:07;34.88;;;21.75;;
29908;SDS011;36247;51.952;6.146;2023-01-24T03:41:52;36.45;;;22.05;;
29908;SDS011;36247;51.952;6.146;2023-01-24T03:44:18;36.47;;;21.90;;
29908;SDS011;36247;51.952;6.146;2023-01-24T03:46:43;34.30;;;20.73;;
29908;SDS011;36247;51.952;6.146;2023-01-24T03:49:11;35.75;;;21.58;;
29908;SDS011;36247;51.952;6.146;2023-01-24T03:51:37;34.05;;;20.92;;
29908;SDS011;36247;51.952;6.146;2023-01-24T03:54:22;37.17;;;22.55;;
29908;SDS011;36247;51.952;6.146;2023-01-24T03:56:54;35.15;;;21.30;;
29908;SDS011;36247;51.952;6.146;2023-01-24T03:59:21;37.53;;;23.75;;
29908;SDS011;36247;51.952;6.146;2023-01-24T04:01:46;37.70;;;23.20;;
29908;SDS011;36247;51.952;6.146;2023-01-24T04:04:23;35.55;;;22.10;;
29908;SDS011;36247;51.952;6.146;2023-01-24T04:06:48;35.00;;;22.08;;
29908;SDS011;36247;51.952;6.146;2023-01-24T04:09:15;35.65;;;22.20;;
29908;SDS011;36247;51.952;6.146;2023-01-24T04:11:42;36.30;;;21.95;;
29908;SDS011;36247;51.952;6.146;2023-01-24T04:14:14;38.60;;;23.38;;
29908;SDS011;36247;51.952;6.146;2023-01-24T04:16:53;37.70;;;23.67;;
29908;SDS011;36247;51.952;6.146;2023-01-24T04:19:23;35.22;;;20.83;;
29908;SDS011;36247;51.952;6.146;2023-01-24T04:21:49;37.50;;;22.50;;
29908;SDS011;36247;51.952;6.146;2023-01-24T04:24:14;37.97;;;22.50;;
29908;SDS011;36247;51.952;6.146;2023-01-24T04:26:42;37.67;;;23.85;;
29908;SDS011;36247;51.952;6.146;2023-01-24T04:29:14;38.85;;;23.40;;
29908;SDS011;36247;51.952;6.146;2023-01-24T04:31:40;38.67;;;22.92;;
29908;SDS011;36247;51.952;6.146;2023-01-24T04:34:17;40.17;;;23.98;;
29908;SDS011;36247;51.952;6.146;2023-01-24T04:36:43;39.65;;;23.98;;
29908;SDS011;36247;51.952;6.146;2023-01-24T04:39:08;39.33;;;23.85;;
29908;SDS011;36247;51.952;6.146;2023-01-24T04:41:44;38.80;;;24.13;;
29908;SDS011;36247;51.952;6.146;2023-01-24T04:44:09;39.55;;;24.42;;
29908;SDS011;36247;51.952;6.146;2023-01-24T04:46:37;43.35;;;25.45;;
29908;SDS011;36247;51.952;6.146;2023-01-24T04:49:02;40.88;;;25.02;;
29908;SDS011;36247;51.952;6.146;2023-01-24T04:51:36;37.40;;;25.10;;
29908;SDS011;36247;51.952;6.146;2023-01-24T04:54:06;38.30;;;24.17;;
29908;SDS011;36247;51.952;6.146;2023-01-24T04:56:33;40.20;;;24.60;;
29908;SDS011;36247;51.952;6.146;2023-01-24T04:58:59;36.72;;;23.55;;
29908;SDS011;36247;51.952;6.146;2023-01-24T05:01:26;40.03;;;25.20;;
29908;SDS011;36247;51.952;6.146;2023-01-24T05:03:58;40.67;;;24.58;;
29908;SDS011;36247;51.952;6.146;2023-01-24T05:06:25;38.58;;;23.55;;
29908;SDS011;36247;51.952;6.146;2023-01-24T05:08:52;41.10;;;24.30;;
29908;SDS011;36247;51.952;6.146;2023-01-24T05:11:20;39.58;;;24.52;;
29908;SDS011;36247;51.952;6.146;2023-01-24T05:13:49;42.58;;;25.00;;
29908;SDS011;36247;51.952;6.146;2023-01-24T05:16:15;40.80;;;23.77;;
29908;SDS011;36247;51.952;6.146;2023-01-24T05:18:41;41.38;;;24.63;;
29908;SDS011;36247;51.952;6.146;2023-01-24T05:21:12;42.40;;;26.08;;
29908;SDS011;36247;51.952;6.146;2023-01-24T05:23:43;43.45;;;24.35;;
29908;SDS011;36247;51.952;6.146;2023-01-24T05:26:13;42.38;;;25.05;;
29908;SDS011;36247;51.952;6.146;2023-01-24T05:28:39;41.42;;;24.23;;
29908;SDS011;36247;51.952;6.146;2023-01-24T05:31:05;44.05;;;25.45;;
29908;SDS011;36247;51.952;6.146;2023-01-24T05:33:36;43.10;;;24.33;;
29908;SDS011;36247;51.952;6.146;2023-01-24T05:36:03;43.22;;;25.48;;
29908;SDS011;36247;51.952;6.146;2023-01-24T05:38:37;44.85;;;26.42;;
29908;SDS011;36247;51.952;6.146;2023-01-24T05:41:04;41.60;;;23.70;;
29908;SDS011;36247;51.952;6.146;2023-01-24T05:43:34;41.75;;;26.30;;
29908;SDS011;36247;51.952;6.146;2023-01-24T05:46:00;44.95;;;26.15;;
29908;SDS011;36247;51.952;6.146;2023-01-24T05:48:32;40.40;;;25.77;;
29908;SDS011;36247;51.952;6.146;2023-01-24T05:50:59;43.15;;;25.48;;
29908;SDS011;36247;51.952;6.146;2023-01-24T05:53:31;42.00;;;25.00;;
29908;SDS011;36247;51.952;6.146;2023-01-24T05:55:58;39.38;;;24.48;;
29908;SDS011;36247;51.952;6.146;2023-01-24T05:58:29;41.55;;;24.63;;
29908;SDS011;36247;51.952;6.146;2023-01-24T06:01:09;44.00;;;25.40;;
29908;SDS011;36247;51.952;6.146;2023-01-24T06:03:40;39.50;;;24.23;;
29908;SDS011;36247;51.952;6.146;2023-01-24T06:06:06;39.67;;;24.27;;
29908;SDS011;36247;51.952;6.146;2023-01-24T06:08:34;39.78;;;24.40;;
29908;SDS011;36247;51.952;6.146;2023-01-24T06:11:04;40.28;;;23.27;;
29908;SDS011;36247;51.952;6.146;2023-01-24T06:13:32;40.83;;;25.05;;
29908;SDS011;36247;51.952;6.146;2023-01-24T06:16:04;43.17;;;24.80;;
29908;SDS011;36247;51.952;6.146;2023-01-24T06:18:33;41.25;;;25.00;;
29908;SDS011;36247;51.952;6.146;2023-01-24T06:21:04;44.70;;;25.48;;
29908;SDS011;36247;51.952;6.146;2023-01-24T06:23:51;43.13;;;25.60;;
29908;SDS011;36247;51.952;6.146;2023-01-24T06:26:18;43.30;;;25.23;;
29908;SDS011;36247;51.952;6.146;2023-01-24T06:28:43;41.05;;;24.23;;
29908;SDS011;36247;51.952;6.146;2023-01-24T06:31:12;43.65;;;26.17;;
29908;SDS011;36247;51.952;6.146;2023-01-24T06:39:18;43.70;;;24.55;;
29908;SDS011;36247;51.952;6.146;2023-01-24T06:41:45;45.15;;;26.33;;
29908;SDS011;36247;51.952;6.146;2023-01-24T06:44:11;44.35;;;27.90;;
29908;SDS011;36247;51.952;6.146;2023-01-24T06:46:36;48.80;;;28.52;;
29908;SDS011;36247;51.952;6.146;2023-01-24T06:49:02;47.08;;;28.15;;
29908;SDS011;36247;51.952;6.146;2023-01-24T06:51:27;46.30;;;27.85;;
29908;SDS011;36247;51.952;6.146;2023-01-24T06:53:53;41.00;;;25.48;;
29908;SDS011;36247;51.952;6.146;2023-01-24T06:56:18;43.42;;;27.05;;
29908;SDS011;36247;51.952;6.146;2023-01-24T06:58:44;48.90;;;27.58;;
29908;SDS011;36247;51.952;6.146;2023-01-24T07:01:09;46.45;;;27.25;;
29908;SDS011;36247;51.952;6.146;2023-01-24T07:03:34;48.83;;;26.00;;
29908;SDS011;36247;51.952;6.146;2023-01-24T07:06:00;47.90;;;27.17;;
29908;SDS011;36247;51.952;6.146;2023-01-24T07:08:25;45.92;;;27.42;;
29908;SDS011;36247;51.952;6.146;2023-01-24T07:10:51;46.30;;;27.52;;
29908;SDS011;36247;51.952;6.146;2023-01-24T07:13:16;49.60;;;28.92;;
29908;SDS011;36247;51.952;6.146;2023-01-24T07:15:42;45.33;;;27.08;;
29908;SDS011;36247;51.952;6.146;2023-01-24T07:18:08;49.97;;;29.60;;
29908;SDS011;36247;51.952;6.146;2023-01-24T07:20:35;46.17;;;27.23;;
29908;SDS011;36247;51.952;6.146;2023-01-24T07:23:01;48.63;;;28.33;;
29908;SDS011;36247;51.952;6.146;2023-01-24T07:25:27;46.97;;;28.83;;
29908;SDS011;36247;51.952;6.146;2023-01-24T07:27:54;49.25;;;29.48;;
29908;SDS011;36247;51.952;6.146;2023-01-24T07:30:19;48.72;;;28.75;;
29908;SDS011;36247;51.952;6.146;2023-01-24T07:32:45;50.05;;;28.98;;
29908;SDS011;36247;51.952;6.146;2023-01-24T07:35:10;50.83;;;29.40;;
29908;SDS011;36247;51.952;6.146;2023-01-24T07:37:36;50.08;;;28.40;;
29908;SDS011;36247;51.952;6.146;2023-01-24T07:40:01;45.15;;;27.38;;
29908;SDS011;36247;51.952;6.146;2023-01-24T07:42:28;47.35;;;28.45;;
29908;SDS011;36247;51.952;6.146;2023-01-24T07:44:53;47.97;;;28.58;;
29908;SDS011;36247;51.952;6.146;2023-01-24T07:47:19;49.30;;;28.25;;
29908;SDS011;36247;51.952;6.146;2023-01-24T07:49:45;49.25;;;29.45;;
29908;SDS011;36247;51.952;6.146;2023-01-24T07:52:10;51.10;;;29.30;;
29908;SDS011;36247;51.952;6.146;2023-01-24T07:54:36;46.88;;;27.65;;
29908;SDS011;36247;51.952;6.146;2023-01-24T07:57:01;45.63;;;27.60;;
29908;SDS011;36247;51.952;6.146;2023-01-24T07:59:26;46.60;;;28.92;;
29908;SDS011;36247;51.952;6.146;2023-01-24T08:01:52;48.83;;;29.48;;
29908;SDS011;36247;51.952;6.146;2023-01-24T08:04:17;48.78;;;29.30;;
29908;SDS011;36247;51.952;6.146;2023-01-24T08:06:43;47.95;;;28.27;;
29908;SDS011;36247;51.952;6.146;2023-01-24T08:09:28;40.15;;;26.08;;
29908;SDS011;36247;51.952;6.146;2023-01-24T08:11:54;44.08;;;26.08;;
29908;SDS011;36247;51.952;6.146;2023-01-24T08:14:20;44.05;;;26.65;;
29908;SDS011;36247;51.952;6.146;2023-01-24T08:16:47;42.40;;;26.45;;
29908;SDS011;36247;51.952;6.146;2023-01-24T08:19:13;40.92;;;27.45;;
29908;SDS011;36247;51.952;6.146;2023-01-24T08:21:38;45.47;;;26.42;;
29908;SDS011;36247;51.952;6.146;2023-01-24T08:24:04;43.83;;;26.30;;
29908;SDS011;36247;51.952;6.146;2023-01-24T08:26:29;41.13;;;26.00;;
29908;SDS011;36247;51.952;6.146;2023-01-24T08:28:55;41.67;;;26.25;;
29908;SDS011;36247;51.952;6.146;2023-01-24T08:31:20;44.53;;;26.38;;
29908;SDS011;36247;51.952;6.146;2023-01-24T08:33:45;42.08;;;24.70;;
29908;SDS011;36247;51.952;6.146;2023-01-24T08:36:11;41.17;;;25.00;;
29908;SDS011;36247;51.952;6.146;2023-01-24T08:38:37;41.85;;;26.33;;
29908;SDS011;36247;51.952;6.146;2023-01-24T08:41:03;45.78;;;26.50;;
29908;SDS011;36247;51.952;6.146;2023-01-24T08:43:29;42.33;;;25.17;;
29908;SDS011;36247;51.952;6.146;2023-01-24T08:45:55;40.10;;;23.77;;
29908;SDS011;36247;51.952;6.146;2023-01-24T08:48:21;38.08;;;24.77;;
29908;SDS011;36247;51.952;6.146;2023-01-24T08:50:46;40.13;;;24.38;;
29908;SDS011;36247;51.952;6.146;2023-01-24T08:53:12;35.63;;;22.05;;
29908;SDS011;36247;51.952;6.146;2023-01-24T08:55:37;36.35;;;22.40;;
29908;SDS011;36247;51.952;6.146;2023-01-24T08:58:03;37.28;;;23.52;;
29908;SDS011;36247;51.952;6.146;2023-01-24T09:00:29;36.15;;;22.80;;
29908;SDS011;36247;51.952;6.146;2023-01-24T09:02:55;34.92;;;21.98;;
29908;SDS011;36247;51.952;6.146;2023-01-24T09:05:25;37.83;;;22.92;;
29908;SDS011;36247;51.952;6.146;2023-01-24T09:07:51;37.25;;;22.42;;
29908;SDS011;36247;51.952;6.146;2023-01-24T09:10:17;35.95;;;22.92;;
29908;SDS011;36247;51.952;6.146;2023-01-24T09:12:42;39.53;;;24.30;;
29908;SDS011;36247;51.952;6.146;2023-01-24T09:15:08;36.58;;;23.67;;
29908;SDS011;36247;51.952;6.146;2023-01-24T09:17:33;37.85;;;24.00;;
29908;SDS011;36247;51.952;6.146;2023-01-24T09:19:59;40.08;;;24.20;;
29908;SDS011;36247;51.952;6.146;2023-01-24T09:22:26;35.88;;;22.85;;
29908;SDS011;36247;51.952;6.146;2023-01-24T09:24:52;34.53;;;22.27;;
29908;SDS011;36247;51.952;6.146;2023-01-24T09:27:17;36.25;;;23.40;;
29908;SDS011;36247;51.952;6.146;2023-01-24T09:29:43;36.78;;;23.33;;
29908;SDS011;36247;51.952;6.146;2023-01-24T09:32:08;37.60;;;23.13;;
29908;SDS011;36247;51.952;6.146;2023-01-24T09:34:33;35.35;;;23.33;;
29908;SDS011;36247;51.952;6.146;2023-01-24T09:36:59;36.20;;;22.83;;
29908;SDS011;36247;51.952;6.146;2023-01-24T09:39:25;39.75;;;23.92;;
29908;SDS011;36247;51.952;6.146;2023-01-24T09:44:54;34.03;;;22.33;;
29908;SDS011;36247;51.952;6.146;2023-01-24T09:50:05;34.03;;;21.88;;
29908;SDS011;36247;51.952;6.146;2023-01-24T09:52:40;37.47;;;23.67;;
29908;SDS011;36247;51.952;6.146;2023-01-24T10:00:27;32.03;;;21.58;;
29908;SDS011;36247;51.952;6.146;2023-01-24T10:02:55;31.60;;;21.58;;
29908;SDS011;36247;51.952;6.146;2023-01-24T10:05:26;33.28;;;21.35;;
29908;SDS011;36247;51.952;6.146;2023-01-24T10:13:47;30.75;;;19.90;;
29908;SDS011;36247;51.952;6.146;2023-01-24T10:16:44;32.42;;;21.38;;
29908;SDS011;36247;51.952;6.146;2023-01-24T10:22:07;29.23;;;19.02;;
29908;SDS011;36247;51.952;6.146;2023-01-24T10:24:38;32.67;;;20.30;;
29908;SDS011;36247;51.952;6.146;2023-01-24T10:27:15;30.98;;;19.50;;
29908;SDS011;36247;51.952;6.146;2023-01-24T10:29:46;30.67;;;20.20;;
29908;SDS011;36247;51.952;6.146;2023-01-24T10:32:20;28.98;;;20.13;;
29908;SDS011;36247;51.952;6.146;2023-01-24T10:34:56;32.10;;;20.77;;
29908;SDS011;36247;51.952;6.146;2023-01-24T10:37:28;29.90;;;19.90;;
29908;SDS011;36247;51.952;6.146;2023-01-24T10:39:58;27.88;;;18.90;;
29908;SDS011;36247;51.952;6.146;2023-01-24T10:42:27;28.23;;;18.98;;
29908;SDS011;36247;51.952;6.146;2023-01-24T10:44:55;28.50;;;18.77;;
29908;SDS011;36247;51.952;6.146;2023-01-24T10:50:16;27.50;;;18.98;;
29908;SDS011;36247;51.952;6.146;2023-01-24T10:52:43;25.17;;;17.60;;
29908;SDS011;36247;51.952;6.146;2023-01-24T10:58:01;21.92;;;15.93;;
29908;SDS011;36247;51.952;6.146;2023-01-24T11:00:44;25.45;;;16.92;;
29908;SDS011;36247;51.952;6.146;2023-01-24T11:03:17;27.88;;;18.13;;
29908;SDS011;36247;51.952;6.146;2023-01-24T11:05:48;23.60;;;16.45;;
29908;SDS011;36247;51.952;6.146;2023-01-24T11:08:23;22.02;;;15.65;;
29908;SDS011;36247;51.952;6.146;2023-01-24T11:10:52;22.75;;;16.67;;
29908;SDS011;36247;51.952;6.146;2023-01-24T11:13:25;26.35;;;16.23;;
29908;SDS011;36247;51.952;6.146;2023-01-24T11:16:00;24.30;;;15.65;;
29908;SDS011;36247;51.952;6.146;2023-01-24T11:18:28;22.92;;;16.08;;
29908;SDS011;36247;51.952;6.146;2023-01-24T11:21:06;23.10;;;16.27;;
29908;SDS011;36247;51.952;6.146;2023-01-24T11:23:33;25.42;;;16.25;;
29908;SDS011;36247;51.952;6.146;2023-01-24T11:25:59;23.35;;;16.05;;
29908;SDS011;36247;51.952;6.146;2023-01-24T11:28:37;24.90;;;16.55;;
29908;SDS011;36247;51.952;6.146;2023-01-24T11:31:10;26.65;;;16.88;;
29908;SDS011;36247;51.952;6.146;2023-01-24T11:33:50;23.20;;;15.82;;
29908;SDS011;36247;51.952;6.146;2023-01-24T11:36:36;25.75;;;17.20;;
29908;SDS011;36247;51.952;6.146;2023-01-24T11:42:56;24.73;;;15.95;;
29908;SDS011;36247;51.952;6.146;2023-01-24T11:45:21;21.02;;;15.50;;
29908;SDS011;36247;51.952;6.146;2023-01-24T11:48:09;21.08;;;15.38;;
29908;SDS011;36247;51.952;6.146;2023-01-24T11:57:09;23.02;;;15.85;;
29908;SDS011;36247;51.952;6.146;2023-01-24T12:03:06;25.40;;;15.80;;
29908;SDS011;36247;51.952;6.146;2023-01-24T12:05:29;27.33;;;16.48;;
29908;SDS011;36247;51.952;6.146;2023-01-24T12:16:04;22.98;;;15.55;;
29908;SDS011;36247;51.952;6.146;2023-01-24T12:18:49;21.02;;;15.00;;
29908;SDS011;36247;51.952;6.146;2023-01-24T12:21:32;24.63;;;16.13;;
29908;SDS011;36247;51.952;6.146;2023-01-24T12:24:01;22.60;;;15.48;;
29908;SDS011;36247;51.952;6.146;2023-01-24T12:26:31;23.00;;;15.85;;
29908;SDS011;36247;51.952;6.146;2023-01-24T12:31:32;21.85;;;14.73;;
29908;SDS011;36247;51.952;6.146;2023-01-24T12:36:59;24.05;;;14.60;;
29908;SDS011;36247;51.952;6.146;2023-01-24T12:39:36;20.92;;;13.65;;
29908;SDS011;36247;51.952;6.146;2023-01-24T12:42:12;23.05;;;14.07;;
29908;SDS011;36247;51.952;6.146;2023-01-24T12:44:43;21.50;;;13.75;;
29908;SDS011;36247;51.952;6.146;2023-01-24T12:53:19;21.60;;;14.23;;
29908;SDS011;36247;51.952;6.146;2023-01-24T12:58:36;20.85;;;14.27;;
29908;SDS011;36247;51.952;6.146;2023-01-24T13:11:57;19.35;;;13.98;;
29908;SDS011;36247;51.952;6.146;2023-01-24T13:14:33;23.88;;;14.93;;
29908;SDS011;36247;51.952;6.146;2023-01-24T13:17:04;21.17;;;15.02;;
29908;SDS011;36247;51.952;6.146;2023-01-24T13:27:57;21.45;;;14.50;;
29908;SDS011;36247;51.952;6.146;2023-01-24T13:30:41;21.85;;;14.90;;
29908;SDS011;36247;51.952;6.146;2023-01-24T13:33:10;25.30;;;17.35;;
29908;SDS011;36247;51.952;6.146;2023-01-24T13:35:45;25.58;;;16.60;;
29908;SDS011;36247;51.952;6.146;2023-01-24T13:38:16;24.55;;;16.38;;
29908;SDS011;36247;51.952;6.146;2023-01-24T13:40:57;23.45;;;16.02;;
29908;SDS011;36247;51.952;6.146;2023-01-24T13:46:11;21.40;;;14.77;;
29908;SDS011;36247;51.952;6.146;2023-01-24T13:51:48;18.75;;;14.52;;
29908;SDS011;36247;51.952;6.146;2023-01-24T13:53:57;21.92;;;14.60;;
29908;SDS011;36247;51.952;6.146;2023-01-24T13:56:31;21.08;;;14.85;;
29908;SDS011;36247;51.952;6.146;2023-01-24T13:58:57;22.90;;;16.08;;
29908;SDS011;36247;51.952;6.146;2023-01-24T14:01:24;20.98;;;14.45;;
29908;SDS011;36247;51.952;6.146;2023-01-24T14:03:56;21.40;;;14.57;;
29908;SDS011;36247;51.952;6.146;2023-01-24T14:06:24;21.40;;;14.23;;
29908;SDS011;36247;51.952;6.146;2023-01-24T14:09:11;25.58;;;14.52;;
29908;SDS011;36247;51.952;6.146;2023-01-24T14:11:52;21.10;;;14.52;;
29908;SDS011;36247;51.952;6.146;2023-01-24T14:14:28;21.65;;;14.18;;
29908;SDS011;36247;51.952;6.146;2023-01-24T14:16:56;19.73;;;14.38;;
29908;SDS011;36247;51.952;6.146;2023-01-24T14:19:33;24.35;;;15.90;;
29908;SDS011;36247;51.952;6.146;2023-01-24T14:24:37;21.65;;;14.57;;
29908;SDS011;36247;51.952;6.146;2023-01-24T14:32:37;21.08;;;15.25;;
29908;SDS011;36247;51.952;6.146;2023-01-24T14:37:39;22.85;;;16.02;;
29908;SDS011;36247;51.952;6.146;2023-01-24T14:40:11;17.85;;;13.95;;
29908;SDS011;36247;51.952;6.146;2023-01-24T14:42:49;23.98;;;15.65;;
29908;SDS011;36247;51.952;6.146;2023-01-24T14:45:23;19.85;;;14.60;;
29908;SDS011;36247;51.952;6.146;2023-01-24T14:47:52;20.00;;;14.48;;
29908;SDS011;36247;51.952;6.146;2023-01-24T14:50:23;19.65;;;14.27;;
29908;SDS011;36247;51.952;6.146;2023-01-24T14:52:50;21.30;;;15.07;;
29908;SDS011;36247;51.952;6.146;2023-01-24T14:57:41;20.02;;;13.82;;
29908;SDS011;36247;51.952;6.146;2023-01-24T15:05:25;23.48;;;14.95;;
29908;SDS011;36247;51.952;6.146;2023-01-24T15:07:59;20.90;;;14.57;;
29908;SDS011;36247;51.952;6.146;2023-01-24T15:10:34;22.90;;;14.90;;
29908;SDS011;36247;51.952;6.146;2023-01-24T15:13:02;21.20;;;14.50;;
29908;SDS011;36247;51.952;6.146;2023-01-24T15:15:31;23.55;;;13.18;;
29908;SDS011;36247;51.952;6.146;2023-01-24T15:18:02;22.63;;;14.68;;
29908;SDS011;36247;51.952;6.146;2023-01-24T15:20:29;22.88;;;15.40;;
29908;SDS011;36247;51.952;6.146;2023-01-24T15:22:56;19.95;;;14.85;;
29908;SDS011;36247;51.952;6.146;2023-01-24T15:25:33;20.73;;;13.82;;
29908;SDS011;36247;51.952;6.146;2023-01-24T15:28:09;18.90;;;13.68;;
29908;SDS011;36247;51.952;6.146;2023-01-24T15:30:35;21.05;;;13.73;;
29908;SDS011;36247;51.952;6.146;2023-01-24T15:33:02;21.25;;;14.00;;
29908;SDS011;36247;51.952;6.146;2023-01-24T15:35:36;21.83;;;14.68;;
29908;SDS011;36247;51.952;6.146;2023-01-24T15:43:47;22.88;;;13.77;;
29908;SDS011;36247;51.952;6.146;2023-01-24T15:46:20;26.13;;;15.43;;
29908;SDS011;36247;51.952;6.146;2023-01-24T15:54:33;22.17;;;13.80;;
29908;SDS011;36247;51.952;6.146;2023-01-24T15:57:01;20.20;;;13.70;;
29908;SDS011;36247;51.952;6.146;2023-01-24T15:59:29;26.85;;;14.52;;
29908;SDS011;36247;51.952;6.146;2023-01-24T16:01:55;23.45;;;15.40;;
29908;SDS011;36247;51.952;6.146;2023-01-24T16:04:22;24.40;;;15.30;;
29908;SDS011;36247;51.952;6.146;2023-01-24T16:06:48;23.27;;;15.27;;
29908;SDS011;36247;51.952;6.146;2023-01-24T16:09:14;22.15;;;15.75;;
29908;SDS011;36247;51.952;6.146;2023-01-24T16:11:41;23.95;;;15.15;;
29908;SDS011;36247;51.952;6.146;2023-01-24T16:14:13;23.08;;;14.75;;
29908;SDS011;36247;51.952;6.146;2023-01-24T16:16:44;22.70;;;14.88;;
29908;SDS011;36247;51.952;6.146;2023-01-24T16:19:20;20.92;;;14.20;;
29908;SDS011;36247;51.952;6.146;2023-01-24T16:21:47;23.90;;;14.65;;
29908;SDS011;36247;51.952;6.146;2023-01-24T16:24:13;19.42;;;14.23;;
29908;SDS011;36247;51.952;6.146;2023-01-24T16:26:40;21.42;;;14.63;;
29908;SDS011;36247;51.952;6.146;2023-01-24T16:29:11;22.58;;;14.60;;
29908;SDS011;36247;51.952;6.146;2023-01-24T16:31:48;22.50;;;15.25;;
29908;SDS011;36247;51.952;6.146;2023-01-24T16:34:13;23.20;;;14.85;;
29908;SDS011;36247;51.952;6.146;2023-01-24T16:36:39;23.98;;;14.68;;
29908;SDS011;36247;51.952;6.146;2023-01-24T16:39:05;23.05;;;14.85;;
29908;SDS011;36247;51.952;6.146;2023-01-24T16:41:32;20.63;;;14.45;;
29908;SDS011;36247;51.952;6.146;2023-01-24T16:43:58;25.70;;;15.80;;
29908;SDS011;36247;51.952;6.146;2023-01-24T16:46:24;25.17;;;15.90;;
29908;SDS011;36247;51.952;6.146;2023-01-24T16:48:49;23.15;;;15.35;;